createdAt,value
2022-12-27T00:02:23.311Z,100.00
2022-12-27T00:04:50.319Z,100.00
2022-12-27T00:07:17.109Z,100.00
2022-12-27T00:09:43.658Z,100.00
2022-12-27T00:12:10.126Z,100.00
2022-12-27T00:14:36.623Z,100.00
2022-12-27T00:17:03.143Z,100.00
2022-12-27T00:19:29.662Z,100.00
2022-12-27T00:21:56.242Z,100.00
2022-12-27T00:24:22.821Z,100.00
2022-12-27T00:26:49.458Z,100.00
2022-12-27T00:29:15.992Z,100.00
2022-12-27T00:31:42.557Z,100.00
2022-12-27T00:34:09.271Z,100.00
2022-12-27T00:36:35.788Z,100.00
2022-12-27T00:39:03.107Z,100.00
2022-12-27T00:41:29.679Z,100.00
2022-12-27T00:43:56.277Z,100.00
2022-12-27T00:46:22.916Z,100.00
2022-12-27T00:48:49.503Z,100.00
2022-12-27T00:51:21.035Z,100.00
2022-12-27T00:53:48.148Z,100.00
2022-12-27T00:56:17.967Z,100.00
2022-12-27T00:58:45.096Z,100.00
2022-12-27T01:01:15.145Z,100.00
2022-12-27T01:03:41.762Z,100.00
2022-12-27T01:06:11.190Z,100.00
2022-12-27T01:08:38.288Z,100.00
2022-12-27T01:11:05.565Z,100.00
2022-12-27T01:13:32.929Z,100.00
2022-12-27T01:15:59.500Z,100.00
2022-12-27T01:18:26.031Z,100.00
2022-12-27T01:20:52.643Z,100.00
2022-12-27T01:23:19.459Z,100.00
2022-12-27T01:25:45.962Z,100.00
2022-12-27T01:28:12.431Z,100.00
2022-12-27T01:30:38.935Z,100.00
2022-12-27T01:33:05.411Z,100.00
2022-12-27T01:35:31.993Z,100.00
2022-12-27T01:37:58.482Z,100.00
2022-12-27T01:40:25.308Z,100.00
2022-12-27T01:42:55.676Z,100.00
2022-12-27T01:45:35.027Z,100.00
2022-12-27T01:48:22.566Z,100.00
2022-12-27T01:50:56.679Z,100.00
2022-12-27T01:53:30.901Z,100.00
2022-12-27T01:56:01.341Z,100.00
2022-12-27T01:58:42.645Z,100.00
2022-12-27T02:01:19.378Z,100.00
2022-12-27T02:03:50.415Z,100.00
2022-12-27T02:06:19.917Z,100.00
2022-12-27T02:08:49.370Z,100.00
2022-12-27T02:11:17.901Z,100.00
2022-12-27T02:13:46.339Z,100.00
2022-12-27T02:16:18.261Z,100.00
2022-12-27T02:18:46.267Z,100.00
2022-12-27T02:21:15.458Z,100.00
2022-12-27T02:24:07.524Z,100.00
2022-12-27T02:26:55.604Z,100.00
2022-12-27T02:29:37.914Z,100.00
2022-12-27T02:32:29.591Z,100.00
2022-12-27T02:35:39.169Z,100.00
2022-12-27T02:38:15.346Z,100.00
2022-12-27T02:41:02.563Z,100.00
2022-12-27T02:43:48.767Z,100.00
2022-12-27T02:46:43.007Z,100.00
2022-12-27T02:49:49.845Z,100.00
2022-12-27T02:52:53.964Z,100.00
2022-12-27T02:56:16.691Z,100.00
2022-12-27T02:59:06.001Z,100.00
2022-12-27T03:02:22.024Z,100.00
2022-12-27T03:04:57.505Z,100.00
2022-12-27T03:07:30.868Z,100.00
2022-12-27T03:10:50.136Z,100.00
2022-12-27T03:13:45.537Z,100.00
2022-12-27T03:16:21.851Z,100.00
2022-12-27T03:19:07.063Z,100.00
2022-12-27T03:21:56.615Z,100.00
2022-12-27T03:24:46.784Z,100.00
2022-12-27T03:27:27.628Z,100.00
2022-12-27T03:30:15.287Z,100.00
2022-12-27T03:33:08.938Z,100.00
2022-12-27T03:35:42.881Z,100.00
2022-12-27T03:38:13.030Z,100.00
2022-12-27T03:41:04.873Z,100.00
2022-12-27T03:43:32.138Z,100.00
2022-12-27T03:46:23.357Z,100.00
2022-12-27T03:49:17.829Z,100.00
2022-12-27T03:51:55.609Z,100.00
2022-12-27T03:54:27.183Z,100.00
2022-12-27T03:57:00.414Z,100.00
2022-12-27T03:59:28.115Z,100.00
2022-12-27T04:01:55.121Z,100.00
2022-12-27T04:04:21.938Z,100.00
2022-12-27T04:06:48.534Z,100.00
2022-12-27T04:09:33.645Z,100.00
2022-12-27T04:12:18.567Z,100.00
2022-12-27T04:15:03.738Z,100.00
2022-12-27T04:17:48.649Z,100.00
2022-12-27T04:20:33.768Z,100.00
2022-12-27T04:23:18.728Z,100.00
2022-12-27T04:26:04.132Z,100.00
2022-12-27T04:28:49.169Z,100.00
2022-12-27T04:31:34.419Z,100.00
2022-12-27T04:34:19.502Z,100.00
2022-12-27T04:36:46.606Z,100.00
2022-12-27T04:39:13.641Z,100.00
2022-12-27T04:41:59.074Z,100.00
2022-12-27T04:44:44.229Z,100.00
2022-12-27T04:47:35.564Z,100.00
2022-12-27T04:50:21.848Z,100.00
2022-12-27T04:53:06.887Z,100.00
2022-12-27T04:55:33.458Z,100.00
2022-12-27T04:58:00.003Z,100.00
2022-12-27T05:00:48.387Z,100.00
2022-12-27T05:03:21.322Z,100.00
2022-12-27T05:05:50.025Z,100.00
2022-12-27T05:08:36.629Z,100.00
2022-12-27T05:11:21.693Z,100.00
2022-12-27T05:14:00.280Z,100.00
2022-12-27T05:16:28.806Z,100.00
2022-12-27T05:18:55.349Z,100.00
2022-12-27T05:21:22.352Z,100.00
2022-12-27T05:24:07.493Z,100.00
2022-12-27T05:26:35.330Z,100.00
2022-12-27T05:29:02.146Z,100.00
2022-12-27T05:31:29.689Z,100.00
2022-12-27T05:33:56.299Z,100.00
2022-12-27T05:36:23.610Z,100.00
2022-12-27T05:38:50.831Z,100.00
2022-12-27T05:41:17.884Z,100.00
2022-12-27T05:43:44.448Z,100.00
2022-12-27T05:46:13.762Z,100.00
2022-12-27T05:48:40.566Z,100.00
2022-12-27T05:51:10.193Z,100.00
2022-12-27T05:53:36.950Z,100.00
2022-12-27T05:56:04.369Z,100.00
2022-12-27T05:58:31.009Z,100.00
2022-12-27T06:00:57.969Z,100.00
2022-12-27T06:03:24.648Z,100.00
2022-12-27T06:05:51.283Z,100.00
2022-12-27T06:08:17.815Z,100.00
2022-12-27T06:10:44.357Z,100.00
2022-12-27T06:13:10.918Z,100.00
2022-12-27T06:15:37.486Z,100.00
2022-12-27T06:18:04.289Z,100.00
2022-12-27T06:20:30.796Z,100.00
2022-12-27T06:23:00.141Z,100.00
2022-12-27T06:25:26.703Z,100.00
2022-12-27T06:27:53.243Z,100.00
2022-12-27T06:30:19.797Z,100.00
2022-12-27T06:32:46.498Z,100.00
2022-12-27T06:35:13.156Z,100.00
2022-12-27T06:37:39.751Z,100.00
2022-12-27T06:40:06.995Z,100.00
2022-12-27T06:42:33.477Z,100.00
2022-12-27T06:44:59.996Z,100.00
2022-12-27T06:47:26.495Z,100.00
2022-12-27T06:49:53.041Z,100.00
2022-12-27T06:52:19.720Z,100.00
2022-12-27T06:54:46.368Z,100.00
2022-12-27T06:57:12.855Z,100.00
2022-12-27T06:59:39.357Z,100.00
2022-12-27T07:02:06.104Z,100.00
2022-12-27T07:04:32.793Z,100.00
2022-12-27T07:06:59.300Z,100.00
2022-12-27T07:09:25.841Z,100.00
2022-12-27T07:11:54.118Z,100.00
2022-12-27T07:14:20.667Z,100.00
2022-12-27T07:16:49.462Z,100.00
2022-12-27T07:19:16.008Z,100.00
2022-12-27T07:21:43.149Z,100.00
2022-12-27T07:24:09.843Z,100.00
2022-12-27T07:26:36.381Z,100.00
2022-12-27T07:29:03.080Z,100.00
2022-12-27T07:31:32.673Z,100.00
2022-12-27T07:34:01.669Z,100.00
2022-12-27T07:36:32.290Z,100.00
2022-12-27T07:38:58.975Z,100.00
2022-12-27T07:41:25.662Z,100.00
2022-12-27T07:43:52.568Z,100.00
2022-12-27T07:46:22.622Z,100.00
2022-12-27T07:48:49.593Z,100.00
2022-12-27T07:51:17.487Z,100.00
2022-12-27T07:53:44.379Z,100.00
2022-12-27T07:56:13.947Z,100.00
2022-12-27T07:58:42.919Z,100.00
2022-12-27T08:01:11.024Z,100.00
2022-12-27T08:03:38.496Z,100.00
2022-12-27T08:06:06.010Z,100.00
2022-12-27T08:08:44.831Z,100.00
2022-12-27T08:11:12.616Z,100.00
2022-12-27T08:13:39.400Z,100.00
2022-12-27T08:16:06.846Z,100.00
2022-12-27T08:18:33.565Z,100.00
2022-12-27T08:21:00.097Z,100.00
2022-12-27T08:23:26.620Z,100.00
2022-12-27T08:25:53.199Z,100.00
2022-12-27T08:28:19.771Z,100.00
2022-12-27T08:30:47.298Z,100.00
2022-12-27T08:33:15.368Z,99.01
2022-12-27T08:35:54.353Z,95.36
2022-12-27T08:38:21.555Z,93.24
2022-12-27T08:40:48.142Z,92.48
2022-12-27T08:43:14.978Z,91.29
2022-12-27T08:45:42.225Z,90.71
2022-12-27T08:48:09.337Z,88.18
2022-12-27T08:50:35.968Z,88.79
2022-12-27T08:53:04.405Z,88.30
2022-12-27T08:55:31.755Z,87.65
2022-12-27T08:57:59.541Z,83.69
2022-12-27T09:00:27.147Z,82.17
2022-12-27T09:02:53.837Z,81.88
2022-12-27T09:05:22.147Z,81.22
2022-12-27T09:07:49.255Z,81.02
2022-12-27T09:10:16.274Z,81.04
2022-12-27T09:12:42.948Z,80.92
2022-12-27T09:15:10.152Z,82.03
2022-12-27T09:17:36.691Z,81.18
2022-12-27T09:20:04.247Z,82.02
2022-12-27T09:22:31.002Z,81.73
2022-12-27T09:24:57.569Z,82.75
2022-12-27T09:27:24.091Z,79.85
2022-12-27T09:29:50.652Z,81.84
2022-12-27T09:32:17.177Z,80.91
2022-12-27T09:34:43.659Z,80.38
2022-12-27T09:37:10.203Z,80.58
2022-12-27T09:39:36.756Z,79.18
2022-12-27T09:42:58.960Z,79.05
2022-12-27T09:45:35.395Z,80.23
2022-12-27T09:48:07.439Z,77.13
2022-12-27T09:50:40.097Z,76.78
2022-12-27T09:53:17.325Z,78.17
2022-12-27T09:55:48.602Z,77.46
2022-12-27T09:58:41.860Z,79.21
2022-12-27T10:01:27.113Z,81.77
2022-12-27T10:03:54.201Z,81.78
2022-12-27T10:06:38.789Z,80.88
2022-12-27T10:09:14.713Z,79.12
2022-12-27T10:12:00.587Z,78.53
2022-12-27T10:14:32.647Z,80.18
2022-12-27T10:17:24.019Z,80.30
2022-12-27T10:20:07.753Z,79.25
2022-12-27T10:22:51.405Z,76.01
2022-12-27T10:25:22.046Z,77.66
2022-12-27T10:27:53.555Z,77.63
2022-12-27T10:30:22.185Z,77.77
2022-12-27T10:32:49.811Z,77.18
2022-12-27T10:35:19.351Z,76.25
2022-12-27T10:37:47.894Z,76.77
2022-12-27T10:40:22.060Z,76.85
2022-12-27T10:43:19.539Z,76.96
2022-12-27T10:45:46.238Z,76.51
2022-12-27T10:48:23.227Z,76.56
2022-12-27T10:50:57.626Z,77.41
2022-12-27T10:53:45.200Z,78.08
2022-12-27T10:56:31.719Z,77.10
2022-12-27T10:59:12.576Z,76.94
2022-12-27T11:01:39.535Z,75.76
2022-12-27T11:04:19.814Z,77.70
2022-12-27T11:06:50.030Z,79.02
2022-12-27T11:09:24.566Z,79.30
2022-12-27T11:11:51.183Z,80.62
2022-12-27T11:14:20.593Z,80.28
2022-12-27T11:16:49.027Z,80.46
2022-12-27T11:19:27.592Z,81.15
2022-12-27T11:21:55.742Z,81.05
2022-12-27T11:24:22.922Z,81.80
2022-12-27T11:26:54.160Z,81.60
2022-12-27T11:29:24.356Z,80.49
2022-12-27T11:31:52.663Z,80.85
2022-12-27T11:34:22.959Z,80.91
2022-12-27T11:36:53.066Z,82.93
2022-12-27T11:39:41.573Z,85.10
2022-12-27T11:42:44.809Z,87.18
2022-12-27T11:45:35.189Z,88.02
2022-12-27T11:48:21.077Z,86.92
2022-12-27T11:51:10.498Z,84.93
2022-12-27T11:54:06.125Z,84.09
2022-12-27T11:56:41.733Z,84.23
2022-12-27T11:59:29.946Z,85.47
2022-12-27T12:02:26.737Z,88.36
2022-12-27T12:05:17.964Z,89.23
2022-12-27T12:08:01.450Z,91.49
2022-12-27T12:10:55.543Z,93.12
2022-12-27T12:13:43.372Z,93.74
2022-12-27T12:16:46.361Z,94.15
2022-12-27T12:19:36.344Z,93.77
2022-12-27T12:22:20.638Z,94.27
2022-12-27T12:25:28.530Z,95.74
2022-12-27T12:28:57.576Z,95.47
2022-12-27T12:31:57.238Z,95.40
2022-12-27T12:34:45.667Z,95.19
2022-12-27T12:37:38.775Z,95.44
2022-12-27T12:40:26.979Z,95.35
2022-12-27T12:43:22.570Z,96.28
2022-12-27T12:46:28.231Z,94.41
2022-12-27T12:49:28.255Z,94.09
2022-12-27T12:52:03.867Z,94.43
2022-12-27T12:54:58.251Z,94.37
2022-12-27T12:57:49.780Z,94.96
2022-12-27T13:00:28.424Z,95.13
2022-12-27T13:03:27.031Z,94.99
2022-12-27T13:06:29.988Z,94.96
2022-12-27T13:09:10.259Z,96.92
2022-12-27T13:11:58.187Z,95.66
2022-12-27T13:14:38.021Z,96.25
2022-12-27T13:17:18.816Z,96.33
2022-12-27T13:20:15.172Z,96.20
2022-12-27T13:23:07.345Z,96.60
2022-12-27T13:25:45.829Z,96.62
2022-12-27T13:28:42.644Z,97.11
2022-12-27T13:31:40.074Z,97.43
2022-12-27T13:34:43.433Z,98.24
2022-12-27T13:37:37.404Z,99.07
2022-12-27T13:40:12.646Z,99.21
2022-12-27T13:43:17.396Z,100.00
2022-12-27T13:46:19.974Z,100.00
2022-12-27T13:48:46.716Z,100.00
2022-12-27T13:51:45.080Z,100.00
2022-12-27T13:54:38.863Z,100.00
2022-12-27T13:57:30.931Z,100.00
2022-12-27T14:00:04.468Z,100.00
2022-12-27T14:02:37.302Z,100.00
2022-12-27T14:05:19.737Z,100.00
2022-12-27T14:08:10.058Z,100.00
2022-12-27T14:10:49.011Z,100.00
2022-12-27T14:13:24.427Z,100.00
2022-12-27T14:16:13.075Z,100.00
2022-12-27T14:18:51.198Z,100.00
2022-12-27T14:21:35.239Z,100.00
2022-12-27T14:24:52.844Z,100.00
2022-12-27T14:27:49.386Z,100.00
2022-12-27T14:30:23.071Z,100.00
2022-12-27T14:33:03.445Z,100.00
2022-12-27T14:35:49.789Z,100.00
2022-12-27T14:38:19.011Z,100.00
2022-12-27T14:41:10.051Z,100.00
2022-12-27T14:43:48.619Z,100.00
2022-12-27T14:46:41.716Z,100.00
2022-12-27T14:49:32.655Z,100.00
2022-12-27T14:52:12.800Z,100.00
2022-12-27T14:55:10.716Z,100.00
2022-12-27T14:57:55.564Z,100.00
2022-12-27T15:00:28.341Z,100.00
2022-12-27T15:03:34.646Z,100.00
2022-12-27T15:06:05.316Z,100.00
2022-12-27T15:08:45.857Z,100.00
2022-12-27T15:11:24.253Z,100.00
2022-12-27T15:14:08.640Z,100.00
2022-12-27T15:16:56.972Z,100.00
2022-12-27T15:20:08.410Z,100.00
2022-12-27T15:22:50.174Z,100.00
2022-12-27T15:25:35.337Z,100.00
2022-12-27T15:28:29.875Z,100.00
2022-12-27T15:31:09.849Z,100.00
2022-12-27T15:34:04.824Z,100.00
2022-12-27T15:36:41.005Z,100.00
2022-12-27T15:39:27.390Z,100.00
2022-12-27T15:42:09.190Z,100.00
2022-12-27T15:44:43.835Z,100.00
2022-12-27T15:47:29.714Z,100.00
2022-12-27T15:50:20.483Z,100.00
2022-12-27T15:53:02.219Z,100.00
2022-12-27T15:55:34.717Z,100.00
2022-12-27T15:58:16.485Z,100.00
2022-12-27T16:00:45.043Z,100.00
2022-12-27T16:03:37.388Z,100.00
2022-12-27T16:06:05.862Z,100.00
2022-12-27T16:08:35.252Z,100.00
2022-12-27T16:11:04.281Z,100.00
2022-12-27T16:13:42.841Z,100.00
2022-12-27T16:16:12.333Z,100.00
2022-12-27T16:19:21.522Z,100.00
2022-12-27T16:21:49.650Z,100.00
2022-12-27T16:24:20.286Z,100.00
2022-12-27T16:26:53.680Z,100.00
2022-12-27T16:29:23.442Z,100.00
2022-12-27T16:31:51.695Z,100.00
2022-12-27T16:34:24.998Z,100.00
2022-12-27T16:36:54.800Z,100.00
2022-12-27T16:39:57.309Z,100.00
2022-12-27T16:42:40.644Z,100.00
2022-12-27T16:45:39.357Z,100.00
2022-12-27T16:48:18.923Z,100.00
2022-12-27T16:51:12.998Z,100.00
2022-12-27T16:54:29.109Z,100.00
2022-12-27T16:57:29.290Z,100.00
2022-12-27T17:00:01.353Z,100.00
2022-12-27T17:02:44.932Z,100.00
2022-12-27T17:05:14.417Z,100.00
2022-12-27T17:07:50.385Z,100.00
2022-12-27T17:10:30.245Z,100.00
2022-12-27T17:13:09.964Z,100.00
2022-12-27T17:16:04.483Z,100.00
2022-12-27T17:18:53.605Z,100.00
2022-12-27T17:21:30.211Z,100.00
2022-12-27T17:24:00.463Z,100.00
2022-12-27T17:26:48.772Z,100.00
2022-12-27T17:29:43.534Z,100.00
2022-12-27T17:32:29.500Z,100.00
2022-12-27T17:35:22.098Z,100.00
2022-12-27T17:38:09.266Z,100.00
2022-12-27T17:41:15.141Z,100.00
2022-12-27T17:44:19.107Z,100.00
2022-12-27T17:46:55.374Z,100.00
2022-12-27T17:49:30.719Z,100.00
2022-12-27T17:52:22.524Z,100.00
2022-12-27T17:55:21.109Z,100.00
2022-12-27T17:57:55.079Z,100.00
2022-12-27T18:00:24.559Z,100.00
2022-12-27T18:02:53.425Z,100.00
2022-12-27T18:05:27.229Z,100.00
2022-12-27T18:08:03.521Z,100.00
2022-12-27T18:10:31.791Z,100.00
2022-12-27T18:13:01.641Z,100.00
2022-12-27T18:15:32.407Z,100.00
2022-12-27T18:18:02.673Z,100.00
2022-12-27T18:20:31.137Z,100.00
2022-12-27T18:23:00.665Z,100.00
2022-12-27T18:25:34.360Z,100.00
2022-12-27T18:28:20.595Z,100.00
2022-12-27T18:30:47.055Z,100.00
2022-12-27T18:33:16.161Z,100.00
2022-12-27T18:35:48.308Z,100.00
2022-12-27T18:38:33.201Z,100.00
2022-12-27T18:41:06.376Z,100.00
2022-12-27T18:43:34.777Z,100.00
2022-12-27T18:46:03.649Z,100.00
2022-12-27T18:48:35.181Z,100.00
2022-12-27T18:51:03.014Z,100.00
2022-12-27T18:53:38.421Z,100.00
2022-12-27T18:56:07.540Z,100.00
2022-12-27T18:58:34.965Z,100.00
2022-12-27T19:01:24.639Z,100.00
2022-12-27T19:04:19.343Z,100.00
2022-12-27T19:07:09.182Z,100.00
2022-12-27T19:09:56.863Z,100.00
2022-12-27T19:12:34.748Z,100.00
2022-12-27T19:15:02.784Z,100.00
2022-12-27T19:17:31.855Z,100.00
2022-12-27T19:20:02.876Z,100.00
2022-12-27T19:22:52.293Z,100.00
2022-12-27T19:25:28.020Z,100.00
2022-12-27T19:27:59.667Z,100.00
2022-12-27T19:31:05.202Z,100.00
2022-12-27T19:33:34.656Z,100.00
2022-12-27T19:36:03.751Z,100.00
2022-12-27T19:38:32.850Z,100.00
2022-12-27T19:41:03.945Z,100.00
2022-12-27T19:43:37.458Z,100.00
2022-12-27T19:46:04.222Z,100.00
2022-12-27T19:48:30.745Z,100.00
2022-12-27T19:50:58.217Z,100.00
2022-12-27T19:53:32.354Z,100.00
2022-12-27T19:56:01.951Z,100.00
2022-12-27T19:58:30.716Z,100.00
2022-12-27T20:00:58.369Z,100.00
2022-12-27T20:03:25.360Z,100.00
2022-12-27T20:06:13.525Z,100.00
2022-12-27T20:08:46.271Z,100.00
2022-12-27T20:11:18.761Z,100.00
2022-12-27T20:13:45.695Z,100.00
2022-12-27T20:16:14.294Z,100.00
2022-12-27T20:18:41.926Z,100.00
2022-12-27T20:21:14.434Z,100.00
2022-12-27T20:23:41.332Z,100.00
2022-12-27T20:26:08.805Z,100.00
2022-12-27T20:28:35.482Z,100.00
2022-12-27T20:31:09.565Z,100.00
2022-12-27T20:33:36.570Z,100.00
2022-12-27T20:36:03.956Z,100.00
2022-12-27T20:38:30.727Z,100.00
2022-12-27T20:40:57.330Z,100.00
2022-12-27T20:43:23.900Z,100.00
2022-12-27T20:45:50.410Z,100.00
2022-12-27T20:48:17.090Z,100.00
2022-12-27T20:50:43.707Z,100.00
2022-12-27T20:53:10.220Z,100.00
2022-12-27T20:55:36.804Z,100.00
2022-12-27T20:58:05.678Z,100.00
2022-12-27T21:00:32.712Z,100.00
2022-12-27T21:03:00.521Z,100.00
2022-12-27T21:05:27.796Z,100.00
2022-12-27T21:07:54.331Z,100.00
2022-12-27T21:10:20.865Z,100.00
2022-12-27T21:12:47.447Z,100.00
2022-12-27T21:15:14.039Z,100.00
2022-12-27T21:17:40.596Z,100.00
2022-12-27T21:20:11.052Z,100.00
2022-12-27T21:22:38.655Z,100.00
2022-12-27T21:25:05.728Z,100.00
2022-12-27T21:27:32.283Z,100.00
2022-12-27T21:30:00.014Z,100.00
2022-12-27T21:32:28.814Z,100.00
2022-12-27T21:34:55.390Z,100.00
2022-12-27T21:37:22.042Z,100.00
2022-12-27T21:39:48.640Z,100.00
2022-12-27T21:42:16.676Z,100.00
2022-12-27T21:44:43.158Z,100.00
2022-12-27T21:47:09.643Z,100.00
2022-12-27T21:49:40.412Z,100.00
2022-12-27T21:52:10.024Z,100.00
2022-12-27T21:54:36.622Z,100.00
2022-12-27T21:57:03.597Z,100.00
2022-12-27T21:59:30.148Z,100.00
2022-12-27T22:01:56.784Z,100.00
2022-12-27T22:04:23.487Z,100.00
2022-12-27T22:06:50.394Z,100.00
2022-12-27T22:09:17.074Z,100.00
2022-12-27T22:11:43.914Z,100.00
2022-12-27T22:14:10.602Z,100.00
2022-12-27T22:16:39.328Z,100.00
2022-12-27T22:19:08.202Z,100.00
2022-12-27T22:21:35.605Z,100.00
2022-12-27T22:24:02.941Z,100.00
2022-12-27T22:26:32.862Z,100.00
2022-12-27T22:28:59.408Z,100.00
2022-12-27T22:31:30.330Z,100.00
2022-12-27T22:33:57.035Z,100.00
2022-12-27T22:36:26.790Z,100.00
2022-12-27T22:38:56.029Z,100.00
2022-12-27T22:41:27.305Z,100.00
2022-12-27T22:43:59.447Z,100.00
2022-12-27T22:46:27.039Z,100.00
2022-12-27T22:48:56.368Z,100.00
2022-12-27T22:51:28.891Z,100.00
2022-12-27T22:53:56.837Z,100.00
2022-12-27T22:56:26.446Z,100.00
2022-12-27T22:58:53.005Z,100.00
2022-12-27T23:01:28.170Z,100.00
2022-12-27T23:03:56.311Z,100.00
2022-12-27T23:06:23.387Z,100.00
2022-12-27T23:08:50.539Z,100.00
2022-12-27T23:11:19.032Z,100.00
2022-12-27T23:13:46.340Z,100.00
2022-12-27T23:16:12.952Z,100.00
2022-12-27T23:18:42.176Z,100.00
2022-12-27T23:21:21.595Z,100.00
2022-12-27T23:23:50.767Z,100.00
2022-12-27T23:26:20.143Z,100.00
2022-12-27T23:28:47.998Z,100.00
2022-12-27T23:31:15.242Z,100.00
2022-12-27T23:33:43.228Z,100.00
2022-12-27T23:36:11.057Z,100.00
2022-12-27T23:38:37.834Z,100.00
2022-12-27T23:41:06.315Z,100.00
2022-12-27T23:43:52.251Z,100.00
2022-12-27T23:46:29.808Z,100.00
2022-12-27T23:48:58.880Z,100.00
2022-12-27T23:51:26.378Z,100.00
2022-12-27T23:53:52.941Z,100.00
2022-12-27T23:56:24.467Z,100.00
2022-12-27T23:58:53.075Z,100.00
